createdAt,value
2018-12-27T00:01:14.615Z,101901
2018-12-27T00:03:44.158Z,101909
2018-12-27T00:06:13.020Z,101893
2018-12-27T00:08:41.865Z,101900
2018-12-27T00:11:10.716Z,101904
2018-12-27T00:13:39.554Z,101902
2018-12-27T00:16:08.385Z,101902
2018-12-27T00:18:37.255Z,101899
2018-12-27T00:21:06.058Z,101902
2018-12-27T00:23:34.890Z,101901
2018-12-27T00:26:03.736Z,101899
2018-12-27T00:28:32.566Z,101892
2018-12-27T00:31:01.437Z,101891
2018-12-27T00:33:30.296Z,101893
2018-12-27T00:35:59.139Z,101888
2018-12-27T00:38:27.979Z,101887
2018-12-27T00:40:56.830Z,101884
2018-12-27T00:43:26.408Z,101872
2018-12-27T00:45:55.244Z,101870
2018-12-27T00:48:24.088Z,101869
2018-12-27T00:50:52.933Z,101874
2018-12-27T00:53:21.771Z,101860
2018-12-27T00:55:50.625Z,101865
2018-12-27T00:58:19.466Z,101858
2018-12-27T01:00:48.308Z,101858
2018-12-27T01:03:17.135Z,101857
2018-12-27T01:05:45.990Z,101861
2018-12-27T01:08:14.858Z,101864
2018-12-27T01:10:43.660Z,101853
2018-12-27T01:13:12.504Z,101857
2018-12-27T01:15:42.093Z,101857
2018-12-27T01:18:10.932Z,101860
2018-12-27T01:20:39.764Z,101853
2018-12-27T01:23:08.600Z,101859
2018-12-27T01:25:37.442Z,101863
2018-12-27T01:28:06.282Z,101848
2018-12-27T01:30:35.142Z,101853
2018-12-27T01:33:04.738Z,101847
2018-12-27T01:35:33.581Z,101850
2018-12-27T01:38:02.421Z,101844
2018-12-27T01:40:31.261Z,101843
2018-12-27T01:43:00.096Z,101839
2018-12-27T01:45:29.693Z,101838
2018-12-27T01:47:59.127Z,101843
2018-12-27T01:50:27.991Z,101836
2018-12-27T01:52:56.838Z,101839
2018-12-27T01:55:25.692Z,101841
2018-12-27T01:57:54.532Z,101838
2018-12-27T02:00:23.404Z,101830
2018-12-27T02:02:52.218Z,101815
2018-12-27T02:05:21.039Z,101823
2018-12-27T02:07:50.622Z,101825
2018-12-27T02:10:19.444Z,101827
2018-12-27T02:12:48.297Z,101826
2018-12-27T02:15:17.888Z,101825
2018-12-27T02:17:46.729Z,101826
2018-12-27T02:20:15.562Z,101835
2018-12-27T02:22:44.397Z,101838
2018-12-27T02:25:13.977Z,101832
2018-12-27T02:27:42.832Z,101831
2018-12-27T02:30:11.674Z,101829
2018-12-27T02:32:41.277Z,101834
2018-12-27T02:35:10.112Z,101833
2018-12-27T02:37:38.962Z,101833
2018-12-27T02:40:08.622Z,101829
2018-12-27T02:42:37.446Z,101823
2018-12-27T02:45:06.280Z,101837
2018-12-27T02:47:35.128Z,101829
2018-12-27T02:50:04.709Z,101831
2018-12-27T02:52:33.528Z,101837
2018-12-27T02:55:03.120Z,101829
2018-12-27T02:57:31.955Z,101824
2018-12-27T03:00:00.801Z,101820
2018-12-27T03:02:29.628Z,101810
2018-12-27T03:04:58.468Z,101805
2018-12-27T03:07:27.397Z,101800
2018-12-27T03:09:56.240Z,101807
2018-12-27T03:12:25.081Z,101800
2018-12-27T03:14:53.922Z,101809
2018-12-27T03:17:22.763Z,101812
2018-12-27T03:19:51.595Z,101805
2018-12-27T03:22:20.418Z,101795
2018-12-27T03:24:49.992Z,101798
2018-12-27T03:27:18.828Z,101798
2018-12-27T03:29:47.670Z,101786
2018-12-27T03:32:16.502Z,101781
2018-12-27T03:34:45.325Z,101774
2018-12-27T03:37:14.202Z,101766
2018-12-27T03:39:43.032Z,101756
2018-12-27T03:42:11.864Z,101755
2018-12-27T03:44:40.715Z,101752
2018-12-27T03:47:09.546Z,101763
2018-12-27T03:49:38.382Z,101754
2018-12-27T03:52:07.226Z,101754
2018-12-27T03:54:36.082Z,101742
2018-12-27T03:57:05.670Z,101739
2018-12-27T03:59:34.509Z,101746
2018-12-27T04:02:03.350Z,101744
2018-12-27T04:04:32.186Z,101751
2018-12-27T04:07:01.027Z,101743
2018-12-27T04:09:29.866Z,101751
2018-12-27T04:11:58.701Z,101754
2018-12-27T04:14:27.561Z,101754
2018-12-27T04:16:56.364Z,101764
2018-12-27T04:19:25.224Z,101738
2018-12-27T04:21:54.073Z,101728
2018-12-27T04:24:22.900Z,101730
2018-12-27T04:26:51.739Z,101724
2018-12-27T04:29:20.567Z,101728
2018-12-27T04:31:49.397Z,101730
2018-12-27T04:34:18.237Z,101717
2018-12-27T04:36:47.811Z,101720
2018-12-27T04:39:16.670Z,101726
2018-12-27T04:41:45.503Z,101724
2018-12-27T04:44:14.329Z,101724
2018-12-27T04:46:43.170Z,101720
2018-12-27T04:49:12.007Z,101717
2018-12-27T04:51:40.836Z,101712
2018-12-27T04:54:09.669Z,101699
2018-12-27T04:56:38.509Z,101708
2018-12-27T04:59:07.330Z,101704
2018-12-27T05:01:36.181Z,101708
2018-12-27T05:04:05.022Z,101713
2018-12-27T05:06:33.852Z,101716
2018-12-27T05:09:02.693Z,101729
2018-12-27T05:11:32.266Z,101748
2018-12-27T05:14:01.111Z,101735
2018-12-27T05:16:29.941Z,101741
2018-12-27T05:18:58.783Z,101751
2018-12-27T05:21:27.616Z,101751
2018-12-27T05:23:56.444Z,101753
2018-12-27T05:26:25.290Z,101748
2018-12-27T05:28:54.124Z,101744
2018-12-27T05:31:23.711Z,101747
2018-12-27T05:33:52.587Z,101747
2018-12-27T05:36:21.422Z,101742
2018-12-27T05:38:50.269Z,101744
2018-12-27T05:41:19.696Z,101745
2018-12-27T05:43:48.540Z,101745
2018-12-27T05:46:17.371Z,101752
2018-12-27T05:48:46.203Z,101748
2018-12-27T05:51:15.044Z,101743
2018-12-27T05:53:44.628Z,101743
2018-12-27T05:56:13.478Z,101741
2018-12-27T05:58:42.306Z,101730
2018-12-27T06:01:11.149Z,101729
2018-12-27T06:03:40.017Z,101740
2018-12-27T06:06:08.858Z,101744
2018-12-27T06:08:37.705Z,101741
2018-12-27T06:11:06.536Z,101740
2018-12-27T06:13:35.368Z,101733
2018-12-27T06:16:04.202Z,101731
2018-12-27T06:18:33.042Z,101739
2018-12-27T06:21:01.900Z,101718
2018-12-27T06:23:30.734Z,101749
2018-12-27T06:25:59.580Z,101730
2018-12-27T06:28:28.419Z,101727
2018-12-27T06:30:57.244Z,101726
2018-12-27T06:33:26.081Z,101723
2018-12-27T06:35:54.924Z,101722
2018-12-27T06:38:23.794Z,101725
2018-12-27T06:40:53.342Z,101730
2018-12-27T06:43:22.188Z,101732
2018-12-27T06:45:51.011Z,101733
2018-12-27T06:48:19.908Z,101727
2018-12-27T06:50:48.740Z,101733
2018-12-27T06:53:17.566Z,101730
2018-12-27T06:55:46.393Z,101732
2018-12-27T06:58:15.974Z,101721
2018-12-27T07:00:44.810Z,101736
2018-12-27T07:03:13.656Z,101728
2018-12-27T07:05:42.501Z,101728
2018-12-27T07:08:11.333Z,101728
2018-12-27T07:10:40.165Z,101730
2018-12-27T07:13:09.008Z,101732
2018-12-27T07:15:37.857Z,101729
2018-12-27T07:18:06.687Z,101724
2018-12-27T07:20:35.517Z,101731
2018-12-27T07:23:04.360Z,101721
2018-12-27T07:25:33.192Z,101719
2018-12-27T07:28:02.032Z,101732
2018-12-27T07:30:30.870Z,101727
2018-12-27T07:32:59.721Z,101714
2018-12-27T07:35:28.551Z,101724
2018-12-27T07:37:57.451Z,101727
2018-12-27T07:40:27.540Z,101727
2018-12-27T07:42:56.860Z,101724
2018-12-27T07:45:25.695Z,101721
2018-12-27T07:47:54.540Z,101720
2018-12-27T07:50:23.380Z,101718
2018-12-27T07:52:52.205Z,101724
2018-12-27T07:55:21.047Z,101725
2018-12-27T07:57:49.884Z,101719
2018-12-27T08:00:18.713Z,101724
2018-12-27T08:02:47.564Z,101729
2018-12-27T08:05:16.398Z,101727
2018-12-27T08:07:45.229Z,101730
2018-12-27T08:10:14.073Z,101728
2018-12-27T08:12:42.912Z,101738
2018-12-27T08:15:11.744Z,101731
2018-12-27T08:17:40.576Z,101730
2018-12-27T08:20:10.174Z,101737
2018-12-27T08:22:39.054Z,101732
2018-12-27T08:25:07.868Z,101732
2018-12-27T08:27:36.710Z,101728
2018-12-27T08:30:05.550Z,101721
2018-12-27T08:32:35.123Z,101718
2018-12-27T08:35:11.271Z,101730
2018-12-27T08:37:32.917Z,101725
2018-12-27T08:40:01.751Z,101734
2018-12-27T08:42:30.600Z,101731
2018-12-27T08:44:59.445Z,101721
2018-12-27T08:47:28.277Z,101731
2018-12-27T08:49:57.116Z,101730
2018-12-27T08:52:25.959Z,101730
2018-12-27T08:54:54.808Z,101737
2018-12-27T08:57:23.641Z,101737
2018-12-27T08:59:53.228Z,101737
2018-12-27T09:02:22.057Z,101738
2018-12-27T09:04:51.808Z,101736
2018-12-27T09:07:20.156Z,101735
2018-12-27T09:09:48.997Z,101746
2018-12-27T09:12:17.836Z,101739
2018-12-27T09:14:46.687Z,101737
2018-12-27T09:17:16.264Z,101728
2018-12-27T09:19:45.161Z,101735
2018-12-27T09:22:13.970Z,101723
2018-12-27T09:24:42.814Z,101727
2018-12-27T09:27:11.651Z,101735
2018-12-27T09:29:41.268Z,101732
2018-12-27T09:32:10.070Z,101731
2018-12-27T09:34:38.912Z,101724
2018-12-27T09:37:07.753Z,101726
2018-12-27T09:39:36.585Z,101726
2018-12-27T09:42:05.487Z,101735
2018-12-27T09:44:34.430Z,101738
2018-12-27T09:47:03.294Z,101726
2018-12-27T09:49:32.139Z,101725
2018-12-27T09:52:02.191Z,101722
2018-12-27T09:54:30.583Z,101717
2018-12-27T09:57:00.214Z,101715
2018-12-27T09:59:29.066Z,101714
2018-12-27T10:01:57.917Z,101714
2018-12-27T10:04:26.762Z,101710
2018-12-27T10:06:55.588Z,101719
2018-12-27T10:09:24.434Z,101718
2018-12-27T10:11:54.084Z,101715
2018-12-27T10:14:22.862Z,101715
2018-12-27T10:16:51.701Z,101714
2018-12-27T10:19:20.543Z,101710
2018-12-27T10:21:49.384Z,101708
2018-12-27T10:24:18.971Z,101717
2018-12-27T10:26:47.810Z,101723
2018-12-27T10:29:16.658Z,101722
2018-12-27T10:31:45.504Z,101717
2018-12-27T10:34:14.338Z,101718
2018-12-27T10:36:43.914Z,101714
2018-12-27T10:39:12.786Z,101709
2018-12-27T10:41:42.359Z,101703
2018-12-27T10:44:11.938Z,101699
2018-12-27T10:46:40.778Z,101698
2018-12-27T10:49:09.642Z,101698
2018-12-27T10:51:38.460Z,101695
2018-12-27T10:54:07.298Z,101692
2018-12-27T10:56:36.146Z,101692
2018-12-27T10:59:05.005Z,101687
2018-12-27T11:01:34.590Z,101675
2018-12-27T11:04:04.165Z,101672
2018-12-27T11:06:33.002Z,101666
2018-12-27T11:09:01.847Z,101660
2018-12-27T11:11:30.677Z,101652
2018-12-27T11:14:00.268Z,101655
2018-12-27T11:16:29.114Z,101652
2018-12-27T11:18:57.952Z,101651
2018-12-27T11:21:26.798Z,101642
2018-12-27T11:23:55.626Z,101642
2018-12-27T11:26:25.200Z,101639
2018-12-27T11:28:54.032Z,101641
2018-12-27T11:31:23.601Z,101641
2018-12-27T11:33:52.434Z,101637
2018-12-27T11:36:21.274Z,101627
2018-12-27T11:38:50.117Z,101627
2018-12-27T11:41:18.956Z,101618
2018-12-27T11:43:47.810Z,101626
2018-12-27T11:46:16.648Z,101615
2018-12-27T11:48:45.518Z,101602
2018-12-27T11:51:14.356Z,101615
2018-12-27T11:53:43.198Z,101597
2018-12-27T11:56:12.025Z,101599
2018-12-27T11:58:40.876Z,101598
2018-12-27T12:01:09.705Z,101589
2018-12-27T12:03:39.330Z,101591
2018-12-27T12:06:08.158Z,101585
2018-12-27T12:08:36.994Z,101584
2018-12-27T12:11:06.586Z,101584
2018-12-27T12:13:35.444Z,101584
2018-12-27T12:16:05.309Z,101580
2018-12-27T12:18:34.133Z,101578
2018-12-27T12:21:02.969Z,101574
2018-12-27T12:23:32.543Z,101585
2018-12-27T12:26:01.382Z,101580
2018-12-27T12:28:30.234Z,101575
2018-12-27T12:30:59.077Z,101579
2018-12-27T12:33:27.919Z,101581
2018-12-27T12:35:56.752Z,101584
2018-12-27T12:38:25.624Z,101574
2018-12-27T12:40:54.439Z,101581
2018-12-27T12:43:23.274Z,101573
2018-12-27T12:45:52.120Z,101574
2018-12-27T12:48:20.951Z,101559
2018-12-27T12:50:49.799Z,101559
2018-12-27T12:53:18.650Z,101557
2018-12-27T12:55:48.244Z,101559
2018-12-27T12:58:17.850Z,101560
2018-12-27T13:00:46.705Z,101559
2018-12-27T13:03:15.532Z,101557
2018-12-27T13:05:45.123Z,101558
2018-12-27T13:08:13.964Z,101563
2018-12-27T13:10:42.820Z,101555
2018-12-27T13:13:12.406Z,101561
2018-12-27T13:15:41.251Z,101555
2018-12-27T13:18:10.090Z,101556
2018-12-27T13:20:38.923Z,101550
2018-12-27T13:23:07.760Z,101552
2018-12-27T13:25:36.628Z,101549
2018-12-27T13:28:05.449Z,101543
2018-12-27T13:30:34.268Z,101542
2018-12-27T13:33:03.132Z,101554
2018-12-27T13:35:32.723Z,101549
2018-12-27T13:38:01.580Z,101551
2018-12-27T13:40:30.416Z,101552
2018-12-27T13:42:59.275Z,101549
2018-12-27T13:45:28.110Z,101541
2018-12-27T13:47:57.806Z,101540
2018-12-27T13:50:27.390Z,101539
2018-12-27T13:52:56.224Z,101533
2018-12-27T13:55:25.069Z,101534
2018-12-27T13:57:53.913Z,101537
2018-12-27T14:00:22.746Z,101538
2018-12-27T14:02:51.571Z,101542
2018-12-27T14:05:21.157Z,101539
2018-12-27T14:07:49.991Z,101526
2018-12-27T14:10:18.822Z,101534
2018-12-27T14:12:47.733Z,101530
2018-12-27T14:15:16.583Z,101531
2018-12-27T14:17:45.411Z,101531
2018-12-27T14:20:15.082Z,101537
2018-12-27T14:22:43.919Z,101527
2018-12-27T14:25:13.499Z,101528
2018-12-27T14:27:42.348Z,101521
2018-12-27T14:30:11.192Z,101527
2018-12-27T14:32:40.790Z,101527
2018-12-27T14:35:09.640Z,101514
2018-12-27T14:37:38.525Z,101521
2018-12-27T14:40:07.373Z,101526
2018-12-27T14:42:36.947Z,101525
2018-12-27T14:45:05.831Z,101532
2018-12-27T14:47:34.682Z,101528
2018-12-27T14:50:03.536Z,101524
2018-12-27T14:52:33.122Z,101534
2018-12-27T14:55:01.981Z,101529
2018-12-27T14:57:30.828Z,101530
2018-12-27T14:59:59.683Z,101543
2018-12-27T15:02:28.530Z,101535
2018-12-27T15:04:58.091Z,101536
2018-12-27T15:07:26.985Z,101546
2018-12-27T15:09:55.815Z,101545
2018-12-27T15:12:24.686Z,101543
2018-12-27T15:14:54.272Z,101544
2018-12-27T15:17:23.128Z,101549
2018-12-27T15:19:51.981Z,101549
2018-12-27T15:22:20.806Z,101548
2018-12-27T15:24:49.647Z,101541
2018-12-27T15:27:19.399Z,101542
2018-12-27T15:29:48.253Z,101537
2018-12-27T15:32:17.146Z,101532
2018-12-27T15:34:45.988Z,101531
2018-12-27T15:37:14.830Z,101529
2018-12-27T15:39:43.670Z,101530
2018-12-27T15:42:12.506Z,101539
2018-12-27T15:44:41.345Z,101529
2018-12-27T15:47:10.168Z,101534
2018-12-27T15:49:39.005Z,101526
2018-12-27T15:52:07.847Z,101531
2018-12-27T15:54:36.684Z,101529
2018-12-27T15:57:05.524Z,101529
2018-12-27T15:59:35.104Z,101530
2018-12-27T16:02:04.683Z,101533
2018-12-27T16:04:33.553Z,101538
2018-12-27T16:07:02.412Z,101532
2018-12-27T16:09:31.240Z,101540
2018-12-27T16:12:00.082Z,101544
2018-12-27T16:14:29.518Z,101540
2018-12-27T16:16:58.392Z,101544
2018-12-27T16:19:27.200Z,101551
2018-12-27T16:21:56.045Z,101534
2018-12-27T16:24:24.872Z,101539
2018-12-27T16:26:53.706Z,101544
2018-12-27T16:29:22.530Z,101547
2018-12-27T16:31:52.122Z,101534
2018-12-27T16:34:20.970Z,101538
2018-12-27T16:36:49.798Z,101539
2018-12-27T16:39:28.944Z,101538
2018-12-27T16:41:57.824Z,101534
2018-12-27T16:44:26.680Z,101534
2018-12-27T16:46:55.518Z,101531
2018-12-27T16:49:24.369Z,101532
2018-12-27T16:51:53.209Z,101531
2018-12-27T16:54:22.046Z,101536
2018-12-27T16:56:50.886Z,101551
2018-12-27T16:59:19.757Z,101536
2018-12-27T17:01:49.327Z,101532
2018-12-27T17:04:18.172Z,101531
2018-12-27T17:06:47.028Z,101535
2018-12-27T17:09:15.885Z,101531
2018-12-27T17:11:44.725Z,101534
2018-12-27T17:14:14.297Z,101535
2018-12-27T17:16:43.142Z,101538
2018-12-27T17:19:11.994Z,101541
2018-12-27T17:21:40.850Z,101543
2018-12-27T17:24:09.703Z,101541
2018-12-27T17:26:38.535Z,101544
2018-12-27T17:29:07.423Z,101538
2018-12-27T17:31:36.266Z,101542
2018-12-27T17:34:05.100Z,101537
2018-12-27T17:36:33.945Z,101550
2018-12-27T17:39:02.778Z,101544
2018-12-27T17:41:31.609Z,101541
2018-12-27T17:44:01.203Z,101547
2018-12-27T17:46:30.054Z,101544
2018-12-27T17:48:58.908Z,101540
2018-12-27T17:51:27.736Z,101556
2018-12-27T17:53:56.581Z,101541
2018-12-27T17:56:25.415Z,101543
2018-12-27T17:58:54.269Z,101538
2018-12-27T18:01:23.119Z,101548
2018-12-27T18:03:52.698Z,101557
2018-12-27T18:06:21.578Z,101556
2018-12-27T18:08:50.431Z,101545
2018-12-27T18:11:19.268Z,101550
2018-12-27T18:13:48.106Z,101553
2018-12-27T18:16:16.944Z,101549
2018-12-27T18:18:45.785Z,101549
2018-12-27T18:21:14.626Z,101542
2018-12-27T18:23:43.491Z,101551
2018-12-27T18:26:13.042Z,101549
2018-12-27T18:28:41.883Z,101555
2018-12-27T18:31:10.732Z,101549
2018-12-27T18:33:40.307Z,101555
2018-12-27T18:36:09.158Z,101559
2018-12-27T18:38:37.993Z,101560
2018-12-27T18:41:06.845Z,101566
2018-12-27T18:43:35.688Z,101555
2018-12-27T18:46:04.541Z,101564
2018-12-27T18:48:33.377Z,101565
2018-12-27T18:51:02.972Z,101551
2018-12-27T18:53:31.844Z,101557
2018-12-27T18:56:00.691Z,101572
2018-12-27T18:58:29.564Z,101570
2018-12-27T19:00:59.143Z,101570
2018-12-27T19:03:28.595Z,101574
2018-12-27T19:05:57.428Z,101563
2018-12-27T19:08:26.273Z,101569
2018-12-27T19:11:12.945Z,101580
2018-12-27T19:13:41.814Z,101575
2018-12-27T19:16:11.383Z,101563
2018-12-27T19:18:40.220Z,101557
2018-12-27T19:21:09.078Z,101550
2018-12-27T19:23:37.925Z,101552
2018-12-27T19:26:06.786Z,101553
2018-12-27T19:28:35.639Z,101556
2018-12-27T19:31:04.470Z,101561
2018-12-27T19:33:33.314Z,101573
2018-12-27T19:36:02.147Z,101574
2018-12-27T19:38:31.000Z,101584
2018-12-27T19:40:59.845Z,101583
2018-12-27T19:43:28.712Z,101574
2018-12-27T19:45:57.573Z,101570
2018-12-27T19:48:26.408Z,101571
2018-12-27T19:50:55.300Z,101570
2018-12-27T19:53:24.148Z,101579
2018-12-27T19:55:52.982Z,101574
2018-12-27T19:58:21.819Z,101576
2018-12-27T20:00:50.655Z,101573
2018-12-27T20:03:19.491Z,101576
2018-12-27T20:05:48.357Z,101578
2018-12-27T20:08:17.189Z,101574
2018-12-27T20:10:46.646Z,101576
2018-12-27T20:13:15.529Z,101572
2018-12-27T20:15:44.370Z,101569
2018-12-27T20:18:13.211Z,101560
2018-12-27T20:20:42.070Z,101562
2018-12-27T20:23:11.670Z,101569
2018-12-27T20:25:40.505Z,101565
2018-12-27T20:28:09.340Z,101561
2018-12-27T20:30:38.195Z,101572
2018-12-27T20:33:07.137Z,101577
2018-12-27T20:35:36.729Z,101584
2018-12-27T20:38:06.745Z,101581
2018-12-27T20:40:34.441Z,101593
2018-12-27T20:43:03.246Z,101591
2018-12-27T20:45:32.118Z,101591
2018-12-27T20:48:00.938Z,101586
2018-12-27T20:50:29.785Z,101592
2018-12-27T20:52:59.371Z,101584
2018-12-27T20:55:28.228Z,101577
2018-12-27T20:57:57.076Z,101584
2018-12-27T21:00:25.917Z,101581
2018-12-27T21:02:54.785Z,101565
2018-12-27T21:05:23.640Z,101576
2018-12-27T21:07:52.477Z,101574
2018-12-27T21:10:21.319Z,101588
2018-12-27T21:12:50.161Z,101589
2018-12-27T21:15:19.008Z,101583
2018-12-27T21:17:47.856Z,101583
2018-12-27T21:20:16.736Z,101643
2018-12-27T21:22:45.524Z,101586
2018-12-27T21:25:14.381Z,101587
2018-12-27T21:27:43.220Z,101597
2018-12-27T21:30:12.797Z,101606
2018-12-27T21:32:41.657Z,101590
2018-12-27T21:35:10.518Z,101587
2018-12-27T21:37:39.389Z,101594
2018-12-27T21:40:08.243Z,101560
2018-12-27T21:42:37.081Z,101580
2018-12-27T21:45:06.714Z,101585
2018-12-27T21:47:35.560Z,101584
2018-12-27T21:50:04.402Z,101574
2018-12-27T21:52:33.256Z,101571
2018-12-27T21:55:02.826Z,101576
2018-12-27T21:57:31.689Z,101571
2018-12-27T22:00:00.557Z,101584
2018-12-27T22:02:30.127Z,101571
2018-12-27T22:04:58.966Z,101565
2018-12-27T22:07:27.798Z,101549
2018-12-27T22:09:56.723Z,101563
2018-12-27T22:12:25.544Z,101538
2018-12-27T22:14:54.401Z,101535
2018-12-27T22:17:23.237Z,101547
2018-12-27T22:19:52.092Z,101545
2018-12-27T22:22:21.658Z,101531
2018-12-27T22:24:50.516Z,101539
2018-12-27T22:27:19.335Z,101547
2018-12-27T22:29:48.204Z,101540
2018-12-27T22:32:17.037Z,101542
2018-12-27T22:34:45.872Z,101538
2018-12-27T22:37:14.723Z,101550
2018-12-27T22:39:43.587Z,101547
2018-12-27T22:42:12.436Z,101557
2018-12-27T22:44:41.280Z,101546
2018-12-27T22:47:10.128Z,101552
2018-12-27T22:49:38.968Z,101550
2018-12-27T22:52:08.543Z,101554
2018-12-27T22:54:37.385Z,101538
2018-12-27T22:57:06.228Z,101543
2018-12-27T22:59:35.094Z,101542
2018-12-27T23:02:03.924Z,101548
2018-12-27T23:04:33.507Z,101540
2018-12-27T23:07:02.410Z,101540
2018-12-27T23:09:31.248Z,101538
2018-12-27T23:12:00.085Z,101546
2018-12-27T23:14:29.657Z,101550
2018-12-27T23:16:58.499Z,101541
2018-12-27T23:19:28.094Z,101538
2018-12-27T23:21:57.679Z,101542
2018-12-27T23:24:26.524Z,101527
2018-12-27T23:26:55.364Z,101523
2018-12-27T23:29:24.219Z,101525
2018-12-27T23:31:53.057Z,101534
2018-12-27T23:34:21.897Z,101513
2018-12-27T23:36:50.752Z,101517
2018-12-27T23:39:19.596Z,101513
2018-12-27T23:41:48.443Z,101524
2018-12-27T23:44:17.287Z,101528
2018-12-27T23:46:46.860Z,101522
2018-12-27T23:49:15.881Z,101529
2018-12-27T23:51:44.712Z,101532
2018-12-27T23:54:13.573Z,101533
2018-12-27T23:56:42.408Z,101530
2018-12-27T23:59:11.242Z,101532
